Time;durP1;ratioP1;P1;durP2;ratioP2;P2;SDS_P1;SDS_P2;PMS_P1;PMS_P2;Temp;Humidity;BMP_temperature;BMP_pressure;BME280_temperature;BME280_humidity;BME280_pressure;Samples;Min_cycle;Max_cycle;Signal;HPM_P1;HPM_P2
2022/12/22 03:27:49;;;;;;;;;;;7.80;99.90;;;;;;5071299;28;20082;-45
2022/12/22 03:30:15;;;;;;;4.93;2.47;;;7.80;99.90;;;;;;5071178;28;19908;-45
2022/12/22 03:32:41;;;;;;;3.17;2.00;;;7.80;99.90;;;;;;5070962;28;20028;-44
2022/12/22 03:35:07;;;;;;;3.65;2.08;;;7.90;99.90;;;;;;5071082;28;20016;-45
2022/12/22 03:37:32;;;;;;;2.47;2.00;;;7.80;99.90;;;;;;5070652;28;20032;-45
2022/12/22 03:39:58;;;;;;;2.67;2.00;;;7.80;99.90;;;;;;5071307;28;20489;-44
2022/12/22 03:47:53;;;;;;;2.63;2.00;;;7.80;99.90;;;;;;5070702;28;20035;-45
2022/12/22 03:50:19;;;;;;;3.00;2.30;;;7.80;99.90;;;;;;5070802;28;20028;-44
2022/12/22 03:52:44;;;;;;;2.60;2.00;;;7.80;99.90;;;;;;5071342;28;20047;-45
2022/12/22 03:55:10;;;;;;;2.78;2.20;;;7.80;99.90;;;;;;5070670;28;20037;-45
2022/12/22 03:57:36;;;;;;;3.30;1.70;;;7.80;99.90;;;;;;5070591;28;20040;-44
2022/12/22 04:00:02;;;;;;;5.50;2.40;;;7.80;99.90;;;;;;5070784;28;20025;-43
2022/12/22 04:02:27;;;;;;;2.35;1.80;;;7.80;99.90;;;;;;5070666;28;20404;-45
2022/12/22 04:04:53;;;;;;;3.55;1.73;;;7.80;99.90;;;;;;5070696;28;20031;-45
2022/12/22 04:07:18;;;;;;;3.08;2.10;;;7.80;99.90;;;;;;5070377;28;20021;-45
2022/12/22 04:12:53;;;;;;;3.78;1.95;;;7.80;99.90;;;;;;5071409;28;20386;-45
2022/12/22 04:15:14;;;;;;;2.55;2.00;;;7.80;99.90;;;;;;5071429;28;20055;-45
2022/12/22 04:17:39;;;;;;;2.50;1.80;;;7.80;99.90;;;;;;5070126;28;20068;-45
2022/12/22 04:20:06;;;;;;;2.80;1.73;;;7.80;99.90;;;;;;5070791;28;20025;-46
2022/12/22 04:22:31;;;;;;;3.83;1.70;;;7.80;99.90;;;;;;5070503;28;20390;-45
2022/12/22 04:24:57;;;;;;;4.75;2.00;;;7.80;99.90;;;;;;5070632;28;20025;-45
2022/12/22 04:27:22;;;;;;;3.05;1.80;;;7.80;99.90;;;;;;5073894;28;20150;-45
2022/12/22 04:29:48;;;;;;;3.58;1.60;;;7.80;99.90;;;;;;5074054;28;20485;-45
2022/12/22 04:32:14;;;;;;;2.70;1.70;;;7.80;99.90;;;;;;5073869;28;20024;-45
2022/12/22 04:34:39;;;;;;;3.00;1.80;;;7.90;99.90;;;;;;5073893;28;20036;-45
2022/12/22 04:37:05;;;;;;;2.83;1.75;;;7.80;99.90;;;;;;5073684;28;20115;-45
2022/12/22 04:39:30;;;;;;;2.40;1.42;;;7.80;99.90;;;;;;5075404;28;20024;-45
2022/12/22 04:41:56;;;;;;;3.53;1.60;;;7.80;99.90;;;;;;5072464;28;20033;-45
2022/12/22 04:44:21;;;;;;;2.60;1.48;;;7.80;99.90;;;;;;5074864;28;20104;-45
2022/12/22 04:46:47;;;;;;;2.72;1.52;;;7.90;99.90;;;;;;5073292;28;20060;-45
2022/12/22 04:49:13;;;;;;;2.35;1.40;;;7.80;99.90;;;;;;5073740;28;20036;-45
2022/12/22 04:51:38;;;;;;;4.18;1.70;;;7.80;99.90;;;;;;5073677;28;20029;-44
2022/12/22 04:54:04;;;;;;;2.58;1.50;;;7.80;99.90;;;;;;5073519;28;20593;-45
2022/12/22 04:56:29;;;;;;;2.03;1.38;;;7.80;99.90;;;;;;5073289;28;20036;-45
2022/12/22 04:58:55;;;;;;;3.92;1.40;;;7.80;99.90;;;;;;5073902;28;20035;-44
2022/12/22 05:01:21;;;;;;;2.58;1.30;;;7.90;99.90;;;;;;5073280;28;20028;-45
2022/12/22 05:03:46;;;;;;;3.60;1.30;;;7.80;99.90;;;;;;5073405;28;20029;-45
2022/12/22 05:06:13;;;;;;;2.60;1.70;;;7.80;99.90;;;;;;5073073;28;20527;-45
2022/12/22 05:08:39;;;;;;;3.40;1.25;;;7.80;99.90;;;;;;5073325;28;20390;-45
2022/12/22 05:11:05;;;;;;;3.03;1.50;;;7.80;99.90;;;;;;5073340;28;20017;-45
2022/12/22 05:13:31;;;;;;;2.88;1.40;;;7.80;99.90;;;;;;5073250;28;20024;-45
2022/12/22 05:16:05;;;;;;;1.80;1.40;;;7.80;99.90;;;;;;5072771;28;20600;-45
2022/12/22 05:18:32;;;;;;;2.78;1.35;;;7.90;99.90;;;;;;5073193;28;20052;-44
2022/12/22 05:21:00;;;;;;;2.55;1.40;;;7.80;99.90;;;;;;5073162;28;20027;-45
2022/12/22 05:23:26;;;;;;;3.67;1.25;;;7.80;99.90;;;;;;5073016;28;20232;-44
2022/12/22 05:25:51;;;;;;;3.80;1.40;;;7.80;99.90;;;;;;5072760;28;20013;-45
2022/12/22 05:28:17;;;;;;;2.90;1.25;;;7.80;99.90;;;;;;5072841;28;20035;-45
2022/12/22 05:30:45;;;;;;;1.73;1.30;;;7.80;99.90;;;;;;5073105;28;20028;-45
2022/12/22 05:33:11;;;;;;;2.70;1.10;;;7.80;99.90;;;;;;5072890;28;20039;-45
2022/12/22 05:35:37;;;;;;;3.10;1.38;;;7.80;99.90;;;;;;5072791;28;20397;-45
2022/12/22 05:38:03;;;;;;;1.55;1.10;;;7.80;99.90;;;;;;5073346;28;20028;-45
2022/12/22 05:40:28;;;;;;;3.00;1.15;;;7.80;99.90;;;;;;5072784;28;20032;-45
2022/12/22 05:42:54;;;;;;;1.33;0.98;;;7.90;99.90;;;;;;5072546;28;20112;-45
2022/12/22 05:45:23;;;;;;;3.72;1.33;;;7.80;99.90;;;;;;5072576;28;20024;-45
2022/12/22 05:47:50;;;;;;;3.40;1.27;;;7.90;99.90;;;;;;5072323;28;20067;-45
2022/12/22 05:50:19;;;;;;;2.40;0.90;;;7.80;99.90;;;;;;5072501;28;20033;-45
2022/12/22 05:52:45;;;;;;;5.25;1.20;;;7.80;99.90;;;;;;5072411;28;20027;-45
2022/12/22 05:55:12;;;;;;;4.43;1.20;;;7.80;99.90;;;;;;5072272;28;20037;-45
2022/12/22 05:57:39;;;;;;;3.30;1.10;;;7.80;99.90;;;;;;5071863;28;20031;-45
2022/12/22 06:00:11;;;;;;;2.25;1.20;;;7.90;99.90;;;;;;5072231;28;20032;-45
2022/12/22 06:02:37;;;;;;;4.70;1.17;;;7.80;99.90;;;;;;5072119;28;20432;-45
2022/12/22 06:05:03;;;;;;;5.78;1.67;;;7.80;99.90;;;;;;5072184;28;20035;-45
2022/12/22 06:07:28;;;;;;;3.75;1.45;;;7.90;99.90;;;;;;5071880;28;20028;-45
2022/12/22 06:09:54;;;;;;;3.92;1.38;;;7.80;99.90;;;;;;5072040;28;20028;-45
2022/12/22 06:12:19;;;;;;;2.30;1.20;;;7.90;99.90;;;;;;5071935;28;20028;-45
2022/12/22 06:14:45;;;;;;;2.83;1.50;;;7.80;99.90;;;;;;5071911;28;20073;-45
2022/12/22 06:17:11;;;;;;;6.50;1.63;;;7.80;99.90;;;;;;5071589;28;20443;-45
2022/12/22 06:19:36;;;;;;;5.88;1.30;;;7.90;99.90;;;;;;5071889;28;20549;-45
2022/12/22 06:22:02;;;;;;;5.70;1.73;;;7.90;99.90;;;;;;5071839;28;20031;-45
2022/12/22 06:24:27;;;;;;;7.90;1.50;;;7.80;99.90;;;;;;5071722;28;20031;-45
2022/12/22 06:26:53;;;;;;;6.15;1.58;;;7.90;99.90;;;;;;5071397;28;20027;-45
2022/12/22 06:29:19;;;;;;;3.20;1.42;;;7.90;99.90;;;;;;5070408;28;20047;-45
2022/12/22 06:31:44;;;;;;;5.10;1.40;;;7.90;99.90;;;;;;5071878;28;20056;-45
2022/12/22 06:34:10;;;;;;;6.05;1.55;;;7.80;99.90;;;;;;5072508;28;20453;-45
2022/12/22 06:36:37;;;;;;;4.00;1.30;;;7.90;99.90;;;;;;5071998;28;20030;-45
2022/12/22 06:39:06;;;;;;;4.40;1.63;;;7.80;99.90;;;;;;5072110;28;20056;-45
2022/12/22 06:44:16;;;;;;;6.05;1.40;;;7.90;99.90;;;;;;5071919;28;20413;-45
2022/12/22 06:46:42;;;;;;;6.38;1.73;;;7.80;99.90;;;;;;5071194;28;20099;-44
2022/12/22 06:49:07;;;;;;;6.38;1.65;;;7.90;99.90;;;;;;5071486;28;20096;-45
2022/12/22 06:51:33;;;;;;;5.32;1.58;;;7.90;99.90;;;;;;5070828;28;20024;-45
2022/12/22 06:53:59;;;;;;;5.57;1.40;;;7.90;99.90;;;;;;5069966;28;20036;-45
2022/12/22 06:56:24;;;;;;;6.57;1.70;;;7.90;99.90;;;;;;5071186;28;20044;-45
2022/12/22 06:58:50;;;;;;;5.43;1.40;;;7.90;99.90;;;;;;5071383;28;20025;-46
2022/12/22 07:01:15;;;;;;;6.68;1.58;;;7.90;99.90;;;;;;5071322;28;20035;-44
2022/12/22 07:03:41;;;;;;;6.97;1.85;;;7.90;99.90;;;;;;5071361;28;20099;-45
2022/12/22 07:06:07;;;;;;;7.03;1.73;;;7.90;99.90;;;;;;5070920;28;20028;-45
2022/12/22 07:08:32;;;;;;;7.90;1.88;;;7.90;99.90;;;;;;5071239;28;20071;-44
2022/12/22 07:10:58;;;;;;;4.97;2.20;;;7.90;99.90;;;;;;5071332;28;20032;-45
2022/12/22 07:13:30;;;;;;;9.02;2.00;;;7.90;99.90;;;;;;5069874;28;20033;-45
2022/12/22 07:15:56;;;;;;;5.00;1.50;;;7.90;99.90;;;;;;5071015;28;20027;-45
2022/12/22 07:18:24;;;;;;;10.93;2.13;;;7.90;99.90;;;;;;5071186;28;20107;-45
2022/12/22 07:20:50;;;;;;;5.50;1.58;;;7.90;99.90;;;;;;5071018;28;20025;-44
2022/12/22 07:23:15;;;;;;;13.18;2.35;;;7.90;99.90;;;;;;5071052;28;20029;-44
2022/12/22 07:25:41;;;;;;;10.48;2.30;;;7.90;99.90;;;;;;5071040;28;20040;-44
2022/12/22 07:28:10;;;;;;;11.20;2.20;;;7.90;99.90;;;;;;5071036;28;20029;-44
2022/12/22 07:30:36;;;;;;;9.95;2.00;;;7.90;99.90;;;;;;5071798;28;20028;-44
2022/12/22 07:33:02;;;;;;;7.85;2.10;;;7.90;99.90;;;;;;5071063;28;20023;-44
2022/12/22 07:35:28;;;;;;;11.10;2.08;;;7.90;99.90;;;;;;5070905;28;20389;-44
2022/12/22 07:37:54;;;;;;;9.70;2.30;;;7.90;99.90;;;;;;5070958;28;20024;-44
2022/12/22 07:40:20;;;;;;;8.52;1.95;;;7.90;99.90;;;;;;5071028;28;20082;-43
2022/12/22 07:42:45;;;;;;;8.00;2.00;;;7.90;99.90;;;;;;5070879;28;20025;-44
2022/12/22 07:45:15;;;;;;;13.30;2.22;;;7.90;99.90;;;;;;5070991;28;20069;-44
2022/12/22 07:47:42;;;;;;;8.95;2.20;;;7.90;99.90;;;;;;5070676;28;20017;-44
2022/12/22 07:50:24;;;;;;;9.90;2.00;;;7.90;99.90;;;;;;5070781;28;20105;-44
2022/12/22 07:53:01;;;;;;;7.57;2.10;;;7.90;99.90;;;;;;5070898;28;20028;-43
2022/12/22 07:55:30;;;;;;;9.48;1.77;;;7.90;99.90;;;;;;5070750;28;20037;-43
2022/12/22 07:57:56;;;;;;;9.32;1.92;;;7.90;99.90;;;;;;5070566;28;20039;-43
2022/12/22 08:00:23;;;;;;;11.50;2.20;;;7.90;99.90;;;;;;5070750;28;20029;-43
2022/12/22 08:02:50;;;;;;;7.03;2.20;;;7.90;99.90;;;;;;5074001;28;20032;-43
2022/12/22 08:05:16;;;;;;;10.15;1.80;;;7.90;99.90;;;;;;5074801;28;20021;-44
2022/12/22 08:07:41;;;;;;;9.90;1.83;;;7.90;99.90;;;;;;5074223;28;20020;-43
2022/12/22 08:10:08;;;;;;;8.70;2.00;;;7.90;99.90;;;;;;5074614;28;20199;-44
2022/12/22 08:12:34;;;;;;;5.85;1.83;;;7.90;99.90;;;;;;5074578;28;20052;-44
2022/12/22 08:14:59;;;;;;;9.98;2.00;;;7.90;99.90;;;;;;5076074;28;20505;-44
2022/12/22 08:17:26;;;;;;;8.90;1.83;;;7.90;99.90;;;;;;5075054;28;20025;-43
2022/12/22 08:19:53;;;;;;;9.05;1.98;;;7.90;99.90;;;;;;5075380;28;20021;-43
2022/12/22 08:22:22;;;;;;;11.25;2.20;;;7.90;99.90;;;;;;5074159;28;20036;-43
2022/12/22 08:24:51;;;;;;;8.05;1.67;;;7.90;99.90;;;;;;5074221;28;20378;-44
2022/12/22 08:27:39;;;;;;;9.30;2.85;;;7.90;99.90;;;;;;5073816;28;20021;-44
2022/12/22 08:30:06;;;;;;;7.95;1.98;;;7.90;99.90;;;;;;5073991;28;20044;-44
2022/12/22 08:32:34;;;;;;;7.53;2.08;;;7.90;99.90;;;;;;5073977;28;20069;-45
2022/12/22 08:35:01;;;;;;;6.35;1.90;;;7.90;99.90;;;;;;5073961;28;20104;-44
2022/12/22 08:37:31;;;;;;;7.93;1.90;;;7.90;99.90;;;;;;5073648;28;20085;-44
2022/12/22 08:40:01;;;;;;;8.93;2.03;;;7.90;99.90;;;;;;5073828;28;20036;-44
2022/12/22 08:42:27;;;;;;;7.30;1.55;;;7.90;99.90;;;;;;5073895;28;20123;-44
2022/12/22 08:44:53;;;;;;;9.23;2.45;;;7.90;99.90;;;;;;5073855;28;20028;-44
2022/12/22 08:47:20;;;;;;;11.45;2.40;;;8.00;99.90;;;;;;5073455;28;20016;-44
2022/12/22 08:49:49;;;;;;;7.90;1.80;;;8.10;99.90;;;;;;5073744;28;20052;-44
2022/12/22 08:52:15;;;;;;;9.27;2.00;;;8.10;99.90;;;;;;5073656;28;20494;-44
2022/12/22 08:54:41;;;;;;;12.65;2.25;;;8.10;99.90;;;;;;5073355;28;20052;-45
2022/12/22 08:57:07;;;;;;;9.20;2.00;;;8.10;99.90;;;;;;5073231;28;20055;-44
2022/12/22 08:59:33;;;;;;;10.13;2.47;;;8.10;99.90;;;;;;5073554;28;20478;-45
2022/12/22 09:02:03;;;;;;;11.10;1.77;;;8.20;99.90;;;;;;5073407;28;20039;-44
2022/12/22 09:04:31;;;;;;;11.30;1.80;;;8.20;99.90;;;;;;5073531;28;20496;-45
2022/12/22 09:06:57;;;;;;;11.25;2.00;;;8.20;99.90;;;;;;5073040;28;20437;-45
2022/12/22 09:09:23;;;;;;;13.07;2.30;;;8.20;99.90;;;;;;5073364;28;20478;-45
2022/12/22 09:11:49;;;;;;;10.90;1.95;;;8.20;99.90;;;;;;5073328;28;20035;-44
2022/12/22 09:14:16;;;;;;;10.10;2.00;;;8.30;99.90;;;;;;5072612;28;20548;-44
2022/12/22 09:16:42;;;;;;;11.43;1.98;;;8.30;99.90;;;;;;5073008;28;20100;-44
2022/12/22 09:19:07;;;;;;;11.10;1.92;;;8.30;99.90;;;;;;5073148;28;20140;-44
2022/12/22 09:21:37;;;;;;;7.53;1.60;;;8.30;99.90;;;;;;5072956;28;20043;-44
2022/12/22 09:24:08;;;;;;;12.02;2.08;;;8.30;99.90;;;;;;5073325;28;20054;-44
2022/12/22 09:26:39;;;;;;;14.18;2.22;;;8.30;99.90;;;;;;5072754;28;20474;-44
2022/12/22 09:29:07;;;;;;;10.15;2.08;;;8.30;99.90;;;;;;5072947;28;20036;-44
2022/12/22 09:31:33;;;;;;;14.07;2.20;;;8.30;99.90;;;;;;5072941;28;20029;-44
2022/12/22 09:34:02;;;;;;;9.75;2.03;;;8.30;99.90;;;;;;5072900;28;20047;-45
2022/12/22 09:36:40;;;;;;;6.07;1.80;;;8.30;99.90;;;;;;5072484;28;20024;-43
2022/12/22 09:39:07;;;;;;;8.43;2.00;;;8.20;99.90;;;;;;5073093;28;20021;-44
2022/12/22 09:41:51;;;;;;;18.05;2.00;;;8.20;99.90;;;;;;5072571;28;20040;-45
2022/12/22 09:44:31;;;;;;;12.60;1.70;;;8.30;99.90;;;;;;5072742;28;20031;-44
2022/12/22 09:47:00;;;;;;;6.32;1.60;;;8.30;99.90;;;;;;5072372;28;20059;-44
2022/12/22 09:49:26;;;;;;;6.63;1.83;;;8.20;99.90;;;;;;5072624;28;20024;-44
2022/12/22 09:51:55;;;;;;;9.95;1.75;;;8.30;99.90;;;;;;5072545;28;20021;-45
2022/12/22 09:54:22;;;;;;;15.10;2.13;;;8.30;99.90;;;;;;5072423;28;20056;-44
2022/12/22 09:56:48;;;;;;;7.43;1.70;;;8.30;99.90;;;;;;5072103;28;20032;-44
2022/12/22 09:59:17;;;;;;;7.50;1.50;;;8.30;99.90;;;;;;5072297;28;20386;-44
2022/12/22 10:01:51;;;;;;;8.48;1.77;;;8.30;99.90;;;;;;5072247;28;20048;-44
2022/12/22 10:04:42;;;;;;;10.85;1.88;;;8.20;99.90;;;;;;5073336;28;20097;-45
2022/12/22 10:07:10;;;;;;;8.48;1.90;;;8.30;99.90;;;;;;5071896;28;20486;-45
2022/12/22 10:09:36;;;;;;;7.53;1.75;;;8.20;99.90;;;;;;5072000;28;20082;-44
2022/12/22 10:12:04;;;;;;;5.53;1.23;;;8.20;99.90;;;;;;5072111;28;20028;-44
2022/12/22 10:14:43;;;;;;;10.85;1.60;;;8.30;99.90;;;;;;5072194;28;20090;-44
2022/12/22 10:17:30;;;;;;;9.48;2.00;;;8.30;99.90;;;;;;5071698;28;20029;-45
2022/12/22 10:20:26;;;;;;;6.07;1.60;;;8.20;99.90;;;;;;5071853;28;20025;-44
2022/12/22 10:23:01;;;;;;;9.20;1.92;;;8.30;99.90;;;;;;5072108;28;20024;-44
2022/12/22 10:25:37;;;;;;;4.18;1.35;;;8.30;99.90;;;;;;5071083;28;20048;-44
2022/12/22 10:28:07;;;;;;;7.38;1.60;;;8.30;99.90;;;;;;5071525;28;20036;-45
2022/12/22 10:30:36;;;;;;;6.03;1.35;;;8.20;99.90;;;;;;5071692;28;20031;-44
2022/12/22 10:33:04;;;;;;;6.70;1.83;;;8.30;99.90;;;;;;5071784;28;20025;-44
2022/12/22 10:35:45;;;;;;;4.78;1.65;;;8.20;99.90;;;;;;5070378;28;20028;-44
2022/12/22 10:38:26;;;;;;;7.95;1.60;;;8.30;99.90;;;;;;5071788;28;20032;-44
2022/12/22 10:41:16;;;;;;;6.63;1.77;;;8.30;99.90;;;;;;5071600;28;20422;-44
2022/12/22 10:43:51;;;;;;;5.35;1.58;;;8.30;99.90;;;;;;5070964;28;20037;-44
2022/12/22 10:46:30;;;;;;;8.85;1.98;;;8.30;99.90;;;;;;5071301;28;20036;-44
2022/12/22 10:49:27;;;;;;;5.80;1.52;;;8.30;99.90;;;;;;5071594;28;20029;-44
2022/12/22 10:51:56;;;;;;;5.07;1.20;;;8.30;99.90;;;;;;5070981;28;20335;-44
2022/12/22 10:54:25;;;;;;;6.18;1.42;;;8.30;99.90;;;;;;5071368;28;20512;-44
2022/12/22 10:57:27;;;;;;;8.40;1.88;;;8.30;99.90;;;;;;5071177;28;20085;-44
2022/12/22 10:59:59;;;;;;;6.53;1.63;;;8.30;99.90;;;;;;5071566;28;20661;-44
2022/12/22 11:02:25;;;;;;;11.13;1.75;;;8.30;99.90;;;;;;5071336;28;20032;-44
2022/12/22 11:04:52;;;;;;;8.93;2.10;;;8.30;99.90;;;;;;5071384;28;20017;-44
2022/12/22 11:07:18;;;;;;;5.95;1.63;;;8.30;99.90;;;;;;5070924;28;20024;-44
2022/12/22 11:09:44;;;;;;;5.07;1.35;;;8.30;99.90;;;;;;5071347;28;20081;-44
2022/12/22 11:12:37;;;;;;;7.28;1.50;;;8.30;99.90;;;;;;5071184;28;20474;-44
2022/12/22 11:15:32;;;;;;;7.93;1.80;;;8.30;99.90;;;;;;5071319;28;20017;-44
2022/12/22 11:18:16;;;;;;;6.88;1.83;;;8.30;99.90;;;;;;5070931;28;20036;-44
2022/12/22 11:20:57;;;;;;;5.07;1.35;;;8.40;99.90;;;;;;5070939;28;20051;-44
2022/12/22 11:23:52;;;;;;;5.45;1.40;;;8.30;99.90;;;;;;5070961;28;20028;-45
2022/12/22 11:26:44;;;;;;;4.78;1.38;;;8.40;99.90;;;;;;5071010;28;20159;-45
2022/12/22 11:29:54;;;;;;;5.75;1.15;;;8.40;99.90;;;;;;5071066;28;20036;-45
2022/12/22 11:32:47;;;;;;;7.28;1.45;;;8.40;99.90;;;;;;5008990;28;20573;-45
2022/12/22 11:35:55;;;;;;;5.15;1.25;;;8.40;99.90;;;;;;5068022;28;20448;-44
2022/12/22 11:38:29;;;;;;;6.10;1.45;;;8.40;99.90;;;;;;5074893;28;20148;-44
2022/12/22 11:41:11;;;;;;;6.15;1.27;;;8.40;99.90;;;;;;5075702;28;20035;-45
2022/12/22 11:43:56;;;;;;;6.45;1.05;;;8.40;99.90;;;;;;5074957;28;20562;-45
2022/12/22 11:47:08;;;;;;;2.88;0.90;;;8.40;99.90;;;;;;5074627;28;20025;-45
2022/12/22 11:50:00;;;;;;;7.70;1.20;;;8.50;99.90;;;;;;5071789;28;20111;-44
2022/12/22 11:52:40;;;;;;;5.85;1.20;;;8.50;99.90;;;;;;5073415;28;20036;-45
2022/12/22 11:55:24;;;;;;;3.10;1.10;;;8.50;99.90;;;;;;5074757;28;20493;-45
2022/12/22 11:58:25;;;;;;;6.60;1.27;;;8.50;99.90;;;;;;5074503;28;20383;-44
2022/12/22 12:00:57;;;;;;;5.78;1.00;;;8.50;99.90;;;;;;5070541;28;20039;-45
2022/12/22 12:03:51;;;;;;;7.47;1.15;;;8.50;99.90;;;;;;5074568;28;20036;-45
2022/12/22 12:06:36;;;;;;;3.83;1.25;;;8.60;99.90;;;;;;5071127;28;20120;-45
2022/12/22 12:09:09;;;;;;;;;;;8.60;99.90;;;;;;5075371;28;20104;-45
2022/12/22 12:11:48;;;;;;;3.72;0.90;;;8.60;99.90;;;;;;5074506;28;19911;-45
2022/12/22 12:14:45;;;;;;;3.42;0.90;;;8.60;99.90;;;;;;5074438;28;20020;-45
2022/12/22 12:17:32;;;;;;;3.92;0.90;;;8.60;99.90;;;;;;5074136;28;20020;-44
2022/12/22 12:19:58;;;;;;;4.45;0.80;;;8.60;99.90;;;;;;5074141;28;20486;-44
2022/12/22 12:22:38;;;;;;;4.72;1.10;;;8.70;99.90;;;;;;5074141;28;20078;-45
2022/12/22 12:25:22;;;;;;;4.20;1.00;;;8.70;99.90;;;;;;5074233;28;20021;-45
2022/12/22 12:27:48;;;;;;;3.95;0.90;;;8.70;99.90;;;;;;5074203;28;20025;-45
2022/12/22 12:30:18;;;;;;;3.13;1.00;;;8.70;99.90;;;;;;5074386;28;20485;-45
2022/12/22 12:32:47;;;;;;;5.05;1.00;;;8.70;99.90;;;;;;5074146;28;20043;-45
2022/12/22 12:35:34;;;;;;;2.95;0.70;;;8.70;99.90;;;;;;5074014;28;20070;-44
2022/12/22 12:38:12;;;;;;;6.18;1.02;;;8.70;99.90;;;;;;5073668;28;20029;-44
2022/12/22 12:40:57;;;;;;;4.60;1.00;;;8.70;99.90;;;;;;5074194;28;20112;-45
2022/12/22 12:43:23;;;;;;;5.30;1.15;;;8.70;99.90;;;;;;5073839;28;20171;-44
2022/12/22 12:45:49;;;;;;;4.22;1.02;;;8.70;99.90;;;;;;5073649;28;20116;-44
2022/12/22 12:48:21;;;;;;;2.50;0.82;;;8.70;99.90;;;;;;5072642;28;20166;-45
2022/12/22 12:50:53;;;;;;;3.50;0.90;;;8.80;99.90;;;;;;5073736;28;20016;-45
2022/12/22 12:53:21;;;;;;;3.03;0.85;;;8.80;99.90;;;;;;5073711;28;20162;-45
2022/12/22 12:55:50;;;;;;;3.10;0.90;;;8.80;99.90;;;;;;5073321;28;20036;-45
2022/12/22 12:58:34;;;;;;;3.08;1.00;;;8.80;99.90;;;;;;5073543;28;20020;-45
2022/12/22 13:01:25;;;;;;;5.88;0.98;;;8.80;99.90;;;;;;5073714;28;20036;-45
2022/12/22 13:03:51;;;;;;;5.03;1.20;;;8.80;99.90;;;;;;5045770;28;20044;-45
2022/12/22 13:06:44;;;;;;;3.22;0.88;;;8.80;99.90;;;;;;5073403;28;20473;-45
2022/12/22 13:09:18;;;;;;;3.55;0.77;;;8.80;99.90;;;;;;5073288;28;20506;-44
2022/12/22 13:11:44;;;;;;;3.72;0.80;;;8.80;99.90;;;;;;5073473;28;20348;-45
2022/12/22 13:14:10;;;;;;;3.45;0.85;;;8.80;99.90;;;;;;5073315;28;20021;-45
2022/12/22 13:16:38;;;;;;;7.63;0.80;;;8.80;99.90;;;;;;5072985;28;20371;-45
2022/12/22 13:19:18;;;;;;;3.92;0.90;;;8.80;99.90;;;;;;5072935;28;20017;-45
2022/12/22 13:21:45;;;;;;;3.60;0.80;;;8.80;99.90;;;;;;5073148;28;20020;-45
2022/12/22 13:24:14;;;;;;;4.85;0.85;;;8.80;99.90;;;;;;5073122;28;20078;-45
2022/12/22 13:26:42;;;;;;;2.58;0.70;;;8.80;99.90;;;;;;5072797;28;20016;-45
2022/12/22 13:29:13;;;;;;;4.75;0.82;;;8.90;99.90;;;;;;5073012;28;20032;-45
2022/12/22 13:31:56;;;;;;;4.38;1.10;;;8.90;99.90;;;;;;5073033;28;20463;-45
2022/12/22 13:34:35;;;;;;;2.78;1.00;;;8.90;99.90;;;;;;5073080;28;20151;-45
2022/12/22 13:37:22;;;;;;;4.03;1.08;;;8.90;99.90;;;;;;5072626;28;20035;-44
2022/12/22 13:40:09;;;;;;;4.68;1.55;;;8.80;99.90;;;;;;5072737;28;20043;-44
2022/12/22 13:42:45;;;;;;;4.78;1.50;;;8.80;99.90;;;;;;5073104;28;20478;-45
2022/12/22 13:45:18;;;;;;;5.43;1.75;;;8.90;99.90;;;;;;5072757;28;20111;-45
2022/12/22 13:47:47;;;;;;;4.30;1.40;;;8.90;99.90;;;;;;5072413;28;20060;-45
2022/12/22 13:50:18;;;;;;;3.70;1.30;;;8.80;99.90;;;;;;5072537;28;20069;-45
2022/12/22 13:52:44;;;;;;;8.27;1.40;;;8.90;99.90;;;;;;5072545;28;20024;-45
2022/12/22 13:55:14;;;;;;;4.32;1.15;;;8.90;99.90;;;;;;5072363;28;20036;-45
2022/12/22 13:57:40;;;;;;;5.07;1.33;;;8.80;99.90;;;;;;5072168;28;20103;-45
2022/12/22 14:00:23;;;;;;;9.77;1.85;;;8.90;99.90;;;;;;5072193;28;20128;-45
2022/12/22 14:02:49;;;;;;;5.75;1.05;;;8.80;99.90;;;;;;5072265;28;20029;-45
2022/12/22 14:05:17;;;;;;;4.03;1.20;;;8.90;99.90;;;;;;5072390;28;20430;-45
2022/12/22 14:08:01;;;;;;;4.45;1.67;;;8.90;99.90;;;;;;5071893;28;20382;-45
2022/12/22 14:10:38;;;;;;;5.47;1.10;;;8.90;99.90;;;;;;5072168;28;20386;-45
2022/12/22 14:13:06;;;;;;;9.23;1.65;;;8.80;99.90;;;;;;5072057;28;20025;-44
2022/12/22 14:15:32;;;;;;;7.20;1.70;;;8.80;99.90;;;;;;5072045;28;20021;-45
2022/12/22 14:17:59;;;;;;;7.65;1.67;;;8.80;99.90;;;;;;5071751;28;20033;-44
2022/12/22 14:20:36;;;;;;;93.13;6.28;;;8.80;99.90;;;;;;5072032;28;20036;-45
2022/12/22 14:23:18;;;;;;;34.13;2.83;;;8.80;99.90;;;;;;5071898;28;20063;-45
2022/12/22 14:25:46;;;;;;;12.30;1.90;;;8.90;99.90;;;;;;5071633;28;20021;-44
2022/12/22 14:28:37;;;;;;;8.05;1.80;;;8.90;99.90;;;;;;5071741;28;20047;-45
2022/12/22 14:31:04;;;;;;;10.30;1.90;;;9.00;99.90;;;;;;5072210;28;20027;-44
2022/12/22 14:33:32;;;;;;;16.02;2.45;;;9.00;99.90;;;;;;5071745;28;20036;-44
2022/12/22 14:36:05;;;;;;;13.55;2.17;;;9.10;99.90;;;;;;5071359;28;20417;-44
2022/12/22 14:38:43;;;;;;;9.23;1.88;;;9.10;99.90;;;;;;5071703;28;20023;-44
2022/12/22 14:44:05;;;;;;;15.05;2.53;;;9.20;99.90;;;;;;5071665;28;20047;-44
2022/12/22 14:46:31;;;;;;;12.85;2.20;;;9.20;99.90;;;;;;5071207;28;20131;-45
2022/12/22 14:48:58;;;;;;;11.35;2.30;;;9.20;99.90;;;;;;5071648;28;20103;-44
2022/12/22 14:51:24;;;;;;;14.55;3.40;;;9.20;99.90;;;;;;5071506;28;20016;-45
2022/12/22 14:53:55;;;;;;;16.65;3.30;;;9.20;99.90;;;;;;5071418;28;20021;-42
2022/12/22 14:56:21;;;;;;;8.20;2.03;;;9.20;99.90;;;;;;5071382;28;20398;-43
2022/12/22 14:58:48;;;;;;;14.50;2.75;;;9.20;99.90;;;;;;5071615;28;20114;-43
2022/12/22 15:01:19;;;;;;;8.15;1.80;;;9.20;99.90;;;;;;5071644;28;20078;-43
2022/12/22 15:04:03;;;;;;;11.90;2.20;;;9.20;99.90;;;;;;5071463;28;20115;-43
2022/12/22 15:06:36;;;;;;;8.73;2.25;;;9.10;99.90;;;;;;5071198;28;20024;-43
2022/12/22 15:09:07;;;;;;;10.93;2.17;;;9.10;99.90;;;;;;5071709;28;20525;-43
2022/12/22 15:11:36;;;;;;;8.10;2.25;;;9.10;99.90;;;;;;5071355;28;20486;-43
2022/12/22 15:14:03;;;;;;;6.35;1.60;;;9.10;99.90;;;;;;5072587;28;20505;-43
2022/12/22 15:16:30;;;;;;;10.30;2.30;;;9.10;99.90;;;;;;5070934;28;20025;-43
2022/12/22 15:18:55;;;;;;;11.20;2.13;;;9.10;99.90;;;;;;5071491;28;20478;-44
2022/12/22 15:21:21;;;;;;;11.98;2.03;;;9.10;99.90;;;;;;5071122;28;20078;-41
2022/12/22 15:23:47;;;;;;;9.15;2.00;;;9.10;99.90;;;;;;5071505;28;20497;-43
2022/12/22 15:26:13;;;;;;;7.35;1.77;;;9.10;99.90;;;;;;5071316;28;20024;-43
2022/12/22 15:28:39;;;;;;;6.28;1.88;;;9.10;99.90;;;;;;5071446;28;20012;-43
2022/12/22 15:31:14;;;;;;;10.10;2.10;;;9.00;99.90;;;;;;5071467;28;20020;-43
2022/12/22 15:33:40;;;;;;;6.88;1.70;;;9.00;99.90;;;;;;5071478;28;20506;-43
2022/12/22 15:36:10;;;;;;;11.13;2.15;;;9.00;99.90;;;;;;5070982;28;20107;-43
2022/12/22 15:38:37;;;;;;;6.85;1.70;;;9.00;99.90;;;;;;5071261;28;20385;-44
2022/12/22 15:41:03;;;;;;;7.22;1.80;;;9.00;99.90;;;;;;5071133;28;20405;-43
2022/12/22 15:43:28;;;;;;;7.28;1.77;;;9.00;99.90;;;;;;5069716;28;20025;-43
2022/12/22 15:45:54;;;;;;;8.88;1.73;;;9.00;99.90;;;;;;5071192;28;20052;-43
2022/12/22 15:48:30;;;;;;;7.00;1.85;;;8.90;99.90;;;;;;5070996;28;20017;-43
2022/12/22 15:50:56;;;;;;;7.05;1.85;;;8.90;99.90;;;;;;5071403;28;20024;-43
2022/12/22 15:53:22;;;;;;;12.52;1.90;;;9.00;99.90;;;;;;5071158;28;20021;-43
2022/12/22 15:55:51;;;;;;;8.35;1.65;;;8.90;99.90;;;;;;5071029;28;20678;-42
2022/12/22 15:58:22;;;;;;;5.70;1.80;;;8.90;99.90;;;;;;5071390;28;20392;-43
2022/12/22 16:00:48;;;;;;;7.15;1.73;;;8.90;99.90;;;;;;5071293;28;20033;-43
2022/12/22 16:03:14;;;;;;;8.32;1.80;;;8.90;99.90;;;;;;5071139;28;20065;-43
2022/12/22 16:05:52;;;;;;;8.80;1.80;;;8.90;99.90;;;;;;5071104;28;20036;-41
2022/12/22 16:08:21;;;;;;;5.20;1.45;;;8.90;99.90;;;;;;5070933;28;20055;-43
2022/12/22 16:10:48;;;;;;;6.60;1.52;;;8.90;99.90;;;;;;5071069;28;20498;-43
2022/12/22 16:13:16;;;;;;;10.15;2.03;;;8.90;99.90;;;;;;5071991;28;20056;-43
2022/12/22 16:15:42;;;;;;;7.90;1.98;;;8.90;99.90;;;;;;5071819;28;20025;-43
2022/12/22 16:18:11;;;;;;;8.55;2.10;;;8.90;99.90;;;;;;5071035;28;20028;-43
2022/12/22 16:20:40;;;;;;;8.40;1.88;;;8.90;99.90;;;;;;5072311;28;20029;-43
2022/12/22 16:23:11;;;;;;;7.18;1.73;;;8.90;99.90;;;;;;5073165;28;20028;-43
2022/12/22 16:25:38;;;;;;;6.43;2.10;;;8.90;99.90;;;;;;5074639;28;20135;-43
2022/12/22 16:28:05;;;;;;;7.88;2.05;;;8.90;99.90;;;;;;5074435;28;20029;-43
2022/12/22 16:30:33;;;;;;;8.40;2.13;;;8.80;99.90;;;;;;5074442;28;20114;-43
2022/12/22 16:32:59;;;;;;;10.02;2.28;;;8.80;99.90;;;;;;5074506;28;20035;-43
2022/12/22 16:35:28;;;;;;;8.88;1.95;;;8.80;99.90;;;;;;5074345;28;20024;-43
2022/12/22 16:38:01;;;;;;;6.13;1.50;;;8.80;99.90;;;;;;5074333;28;20028;-43
2022/12/22 16:40:27;;;;;;;7.63;1.85;;;8.80;99.90;;;;;;5074201;28;20021;-43
2022/12/22 16:43:02;;;;;;;9.35;2.10;;;8.80;99.90;;;;;;5074399;28;20035;-43
2022/12/22 16:45:30;;;;;;;9.48;2.28;;;8.80;99.90;;;;;;5074270;28;20033;-42
2022/12/22 16:47:59;;;;;;;7.18;2.05;;;8.80;99.90;;;;;;5073943;28;20017;-43
2022/12/22 16:50:31;;;;;;;9.80;2.45;;;8.80;99.90;;;;;;5074239;28;20124;-43
2022/12/22 16:53:02;;;;;;;10.85;2.30;;;8.80;99.90;;;;;;5074498;28;20138;-43
2022/12/22 16:55:27;;;;;;;9.82;2.35;;;8.80;99.90;;;;;;5073941;28;20431;-39